sensor_id;sensor_type;location;lat;lon;timestamp;P1;durP1;ratioP1;P2;durP2;ratioP2
64520;SDS011;50896;46.714;17.322;2022-11-15T08:07:07;99.97;;;34.10;;
64520;SDS011;50896;46.714;17.322;2022-11-15T08:09:53;96.35;;;33.67;;
64520;SDS011;50896;46.714;17.322;2022-11-15T08:12:39;85.75;;;32.38;;
64520;SDS011;50896;46.714;17.322;2022-11-15T08:15:25;85.00;;;31.17;;
64520;SDS011;50896;46.714;17.322;2022-11-15T08:18:12;85.93;;;33.42;;
64520;SDS011;50896;46.714;17.322;2022-11-15T08:20:59;98.10;;;34.22;;
64520;SDS011;50896;46.714;17.322;2022-11-15T08:23:46;91.45;;;32.78;;
64520;SDS011;50896;46.714;17.322;2022-11-15T08:26:31;82.05;;;31.15;;
64520;SDS011;50896;46.714;17.322;2022-11-15T08:29:19;85.13;;;31.60;;
64520;SDS011;50896;46.714;17.322;2022-11-15T08:32:05;75.68;;;30.55;;
64520;SDS011;50896;46.714;17.322;2022-11-15T08:34:50;69.57;;;29.10;;
64520;SDS011;50896;46.714;17.322;2022-11-15T08:37:36;67.68;;;28.63;;
64520;SDS011;50896;46.714;17.322;2022-11-15T08:40:21;83.85;;;30.30;;
64520;SDS011;50896;46.714;17.322;2022-11-15T08:43:07;80.75;;;32.05;;
64520;SDS011;50896;46.714;17.322;2022-11-15T08:45:56;71.28;;;29.02;;
64520;SDS011;50896;46.714;17.322;2022-11-15T08:48:42;65.13;;;28.17;;
64520;SDS011;50896;46.714;17.322;2022-11-15T08:51:27;80.45;;;30.08;;
64520;SDS011;50896;46.714;17.322;2022-11-15T08:54:12;70.97;;;30.95;;
64520;SDS011;50896;46.714;17.322;2022-11-15T08:56:58;76.22;;;30.85;;
64520;SDS011;50896;46.714;17.322;2022-11-15T08:59:43;83.40;;;31.88;;
64520;SDS011;50896;46.714;17.322;2022-11-15T09:02:28;79.00;;;33.30;;
64520;SDS011;50896;46.714;17.322;2022-11-15T09:05:14;77.70;;;30.52;;
64520;SDS011;50896;46.714;17.322;2022-11-15T09:08:00;82.80;;;32.15;;
64520;SDS011;50896;46.714;17.322;2022-11-15T09:10:57;84.60;;;34.53;;
64520;SDS011;50896;46.714;17.322;2022-11-15T09:13:43;80.45;;;32.53;;
64520;SDS011;50896;46.714;17.322;2022-11-15T09:16:29;82.38;;;31.98;;
64520;SDS011;50896;46.714;17.322;2022-11-15T09:19:15;78.07;;;32.15;;
64520;SDS011;50896;46.714;17.322;2022-11-15T09:22:00;87.72;;;34.22;;
64520;SDS011;50896;46.714;17.322;2022-11-15T09:24:46;81.88;;;33.17;;
64520;SDS011;50896;46.714;17.322;2022-11-15T09:27:31;82.80;;;32.15;;
64520;SDS011;50896;46.714;17.322;2022-11-15T09:30:17;75.35;;;30.10;;
64520;SDS011;50896;46.714;17.322;2022-11-15T09:33:09;82.07;;;33.85;;
64520;SDS011;50896;46.714;17.322;2022-11-15T09:35:59;78.68;;;33.50;;
64520;SDS011;50896;46.714;17.322;2022-11-15T09:38:46;84.38;;;33.88;;
64520;SDS011;50896;46.714;17.322;2022-11-15T09:45:12;93.05;;;36.38;;
64520;SDS011;50896;46.714;17.322;2022-11-15T09:50:55;95.38;;;37.70;;
64520;SDS011;50896;46.714;17.322;2022-11-15T09:53:35;98.47;;;36.63;;
64520;SDS011;50896;46.714;17.322;2022-11-15T09:56:30;99.47;;;36.05;;
64520;SDS011;50896;46.714;17.322;2022-11-15T10:04:23;112.40;;;40.22;;
64520;SDS011;50896;46.714;17.322;2022-11-15T10:07:02;113.68;;;38.92;;
64520;SDS011;50896;46.714;17.322;2022-11-15T10:09:51;103.40;;;40.25;;
64520;SDS011;50896;46.714;17.322;2022-11-15T10:12:18;113.13;;;39.90;;
64520;SDS011;50896;46.714;17.322;2022-11-15T10:14:45;133.57;;;43.67;;
64520;SDS011;50896;46.714;17.322;2022-11-15T10:20:06;128.25;;;43.95;;
64520;SDS011;50896;46.714;17.322;2022-11-15T10:22:46;121.25;;;40.20;;
64520;SDS011;50896;46.714;17.322;2022-11-15T10:25:16;142.90;;;43.55;;
64520;SDS011;50896;46.714;17.322;2022-11-15T10:27:44;125.20;;;41.30;;
64520;SDS011;50896;46.714;17.322;2022-11-15T10:30:33;125.90;;;41.75;;
64520;SDS011;50896;46.714;17.322;2022-11-15T10:33:09;125.20;;;42.25;;
64520;SDS011;50896;46.714;17.322;2022-11-15T10:35:37;121.85;;;40.70;;
64520;SDS011;50896;46.714;17.322;2022-11-15T10:38:08;134.25;;;42.13;;
64520;SDS011;50896;46.714;17.322;2022-11-15T10:40:36;140.43;;;44.35;;
64520;SDS011;50896;46.714;17.322;2022-11-15T10:43:10;128.05;;;42.17;;
64520;SDS011;50896;46.714;17.322;2022-11-15T10:45:40;143.38;;;46.72;;
64520;SDS011;50896;46.714;17.322;2022-11-15T10:50:38;129.27;;;43.53;;
64520;SDS011;50896;46.714;17.322;2022-11-15T10:56:11;127.60;;;44.08;;
64520;SDS011;50896;46.714;17.322;2022-11-15T10:58:43;126.25;;;41.78;;
64520;SDS011;50896;46.714;17.322;2022-11-15T11:01:17;137.77;;;43.53;;
64520;SDS011;50896;46.714;17.322;2022-11-15T11:03:59;143.07;;;45.08;;
64520;SDS011;50896;46.714;17.322;2022-11-15T11:06:29;136.32;;;43.25;;
64520;SDS011;50896;46.714;17.322;2022-11-15T11:09:03;136.70;;;44.25;;
64520;SDS011;50896;46.714;17.322;2022-11-15T11:11:45;144.43;;;46.15;;
64520;SDS011;50896;46.714;17.322;2022-11-15T11:14:23;134.85;;;44.45;;
64520;SDS011;50896;46.714;17.322;2022-11-15T11:22:48;129.60;;;42.30;;
64520;SDS011;50896;46.714;17.322;2022-11-15T11:25:36;142.77;;;44.05;;
64520;SDS011;50896;46.714;17.322;2022-11-15T11:44:35;109.43;;;43.03;;
64520;SDS011;50896;46.714;17.322;2022-11-15T11:49:50;94.63;;;39.28;;
64520;SDS011;50896;46.714;17.322;2022-11-15T11:52:34;91.13;;;37.42;;
64520;SDS011;50896;46.714;17.322;2022-11-15T11:55:19;94.60;;;36.13;;
64520;SDS011;50896;46.714;17.322;2022-11-15T12:06:42;73.60;;;32.40;;
64520;SDS011;50896;46.714;17.322;2022-11-15T12:09:20;72.30;;;33.03;;
64520;SDS011;50896;46.714;17.322;2022-11-15T12:14:51;57.72;;;29.13;;
64520;SDS011;50896;46.714;17.322;2022-11-15T12:17:23;63.55;;;32.75;;
64520;SDS011;50896;46.714;17.322;2022-11-15T12:19:54;49.83;;;26.58;;
64520;SDS011;50896;46.714;17.322;2022-11-15T12:22:24;49.58;;;27.83;;
64520;SDS011;50896;46.714;17.322;2022-11-15T12:24:57;50.05;;;27.90;;
64520;SDS011;50896;46.714;17.322;2022-11-15T12:27:35;48.35;;;28.27;;
64520;SDS011;50896;46.714;17.322;2022-11-15T12:30:14;45.53;;;26.70;;
64520;SDS011;50896;46.714;17.322;2022-11-15T12:32:50;49.58;;;28.75;;
64520;SDS011;50896;46.714;17.322;2022-11-15T12:37:56;47.38;;;27.70;;
64520;SDS011;50896;46.714;17.322;2022-11-15T12:40:31;46.53;;;27.20;;
64520;SDS011;50896;46.714;17.322;2022-11-15T12:45:42;46.75;;;27.67;;
64520;SDS011;50896;46.714;17.322;2022-11-15T12:58:43;55.95;;;30.90;;
64520;SDS011;50896;46.714;17.322;2022-11-15T13:01:10;54.55;;;31.30;;
64520;SDS011;50896;46.714;17.322;2022-11-15T13:06:56;53.83;;;30.63;;
64520;SDS011;50896;46.714;17.322;2022-11-15T13:11:55;47.20;;;26.63;;
64520;SDS011;50896;46.714;17.322;2022-11-15T13:14:44;50.03;;;26.98;;
64520;SDS011;50896;46.714;17.322;2022-11-15T13:17:16;49.92;;;28.63;;
64520;SDS011;50896;46.714;17.322;2022-11-15T13:19:47;60.17;;;32.22;;
64520;SDS011;50896;46.714;17.322;2022-11-15T13:22:18;49.53;;;30.88;;
64520;SDS011;50896;46.714;17.322;2022-11-15T13:25:04;56.33;;;29.95;;
64520;SDS011;50896;46.714;17.322;2022-11-15T13:27:42;49.42;;;29.23;;
64520;SDS011;50896;46.714;17.322;2022-11-15T13:30:22;54.72;;;32.13;;
64520;SDS011;50896;46.714;17.322;2022-11-15T13:32:51;47.08;;;27.88;;
64520;SDS011;50896;46.714;17.322;2022-11-15T13:35:21;44.85;;;29.17;;
64520;SDS011;50896;46.714;17.322;2022-11-15T13:37:50;45.60;;;26.30;;
64520;SDS011;50896;46.714;17.322;2022-11-15T13:40:28;48.40;;;28.98;;
64520;SDS011;50896;46.714;17.322;2022-11-15T13:43:13;44.25;;;26.52;;
64520;SDS011;50896;46.714;17.322;2022-11-15T13:46:15;37.63;;;24.10;;
64520;SDS011;50896;46.714;17.322;2022-11-15T13:48:52;38.85;;;25.80;;
64520;SDS011;50896;46.714;17.322;2022-11-15T13:56:35;38.50;;;24.05;;
64520;SDS011;50896;46.714;17.322;2022-11-15T13:59:13;38.92;;;25.17;;
64520;SDS011;50896;46.714;17.322;2022-11-15T14:01:45;42.30;;;24.75;;
64520;SDS011;50896;46.714;17.322;2022-11-15T14:04:13;40.25;;;24.95;;
64520;SDS011;50896;46.714;17.322;2022-11-15T14:06:45;36.53;;;23.38;;
64520;SDS011;50896;46.714;17.322;2022-11-15T14:09:36;40.45;;;25.35;;
64520;SDS011;50896;46.714;17.322;2022-11-15T14:12:23;37.15;;;24.00;;
64520;SDS011;50896;46.714;17.322;2022-11-15T14:15:17;37.45;;;23.63;;
64520;SDS011;50896;46.714;17.322;2022-11-15T14:17:51;37.78;;;24.73;;
64520;SDS011;50896;46.714;17.322;2022-11-15T14:20:34;38.85;;;24.15;;
64520;SDS011;50896;46.714;17.322;2022-11-15T14:23:04;39.30;;;25.45;;
64520;SDS011;50896;46.714;17.322;2022-11-15T14:25:53;38.50;;;23.15;;
64520;SDS011;50896;46.714;17.322;2022-11-15T14:30:48;41.92;;;25.83;;
64520;SDS011;50896;46.714;17.322;2022-11-15T14:35:51;36.47;;;23.80;;
64520;SDS011;50896;46.714;17.322;2022-11-15T14:38:18;38.47;;;23.67;;
64520;SDS011;50896;46.714;17.322;2022-11-15T14:40:45;35.70;;;22.98;;
64520;SDS011;50896;46.714;17.322;2022-11-15T14:43:12;43.75;;;24.88;;
64520;SDS011;50896;46.714;17.322;2022-11-15T14:45:39;42.53;;;24.48;;
64520;SDS011;50896;46.714;17.322;2022-11-15T14:48:06;45.38;;;27.85;;
64520;SDS011;50896;46.714;17.322;2022-11-15T14:50:34;40.22;;;25.90;;
64520;SDS011;50896;46.714;17.322;2022-11-15T14:53:01;42.13;;;27.02;;
64520;SDS011;50896;46.714;17.322;2022-11-15T14:55:31;48.42;;;31.52;;
64520;SDS011;50896;46.714;17.322;2022-11-15T14:58:03;49.58;;;30.10;;
64520;SDS011;50896;46.714;17.322;2022-11-15T15:00:30;56.97;;;34.78;;
64520;SDS011;50896;46.714;17.322;2022-11-15T15:03:01;40.10;;;25.20;;
64520;SDS011;50896;46.714;17.322;2022-11-15T15:05:33;39.63;;;25.58;;
64520;SDS011;50896;46.714;17.322;2022-11-15T15:08:02;39.30;;;26.10;;
64520;SDS011;50896;46.714;17.322;2022-11-15T15:10:34;37.65;;;25.23;;
64520;SDS011;50896;46.714;17.322;2022-11-15T15:13:29;39.88;;;26.48;;
64520;SDS011;50896;46.714;17.322;2022-11-15T15:15:56;39.92;;;26.23;;
64520;SDS011;50896;46.714;17.322;2022-11-15T15:18:23;37.00;;;24.60;;
64520;SDS011;50896;46.714;17.322;2022-11-15T15:20:57;34.38;;;23.15;;
64520;SDS011;50896;46.714;17.322;2022-11-15T15:23:26;35.85;;;23.73;;
64520;SDS011;50896;46.714;17.322;2022-11-15T15:25:55;35.60;;;23.05;;
64520;SDS011;50896;46.714;17.322;2022-11-15T15:28:22;42.00;;;26.27;;
64520;SDS011;50896;46.714;17.322;2022-11-15T15:30:49;38.75;;;23.63;;
64520;SDS011;50896;46.714;17.322;2022-11-15T15:33:16;34.50;;;22.20;;
64520;SDS011;50896;46.714;17.322;2022-11-15T15:35:42;37.28;;;24.27;;
64520;SDS011;50896;46.714;17.322;2022-11-15T15:38:12;36.35;;;24.27;;
64520;SDS011;50896;46.714;17.322;2022-11-15T15:40:39;36.08;;;22.88;;
64520;SDS011;50896;46.714;17.322;2022-11-15T15:43:05;36.72;;;23.50;;
64520;SDS011;50896;46.714;17.322;2022-11-15T15:45:38;38.78;;;23.83;;
64520;SDS011;50896;46.714;17.322;2022-11-15T15:48:10;37.88;;;24.08;;
64520;SDS011;50896;46.714;17.322;2022-11-15T15:50:39;36.30;;;22.77;;
64520;SDS011;50896;46.714;17.322;2022-11-15T15:53:06;38.88;;;23.73;;
64520;SDS011;50896;46.714;17.322;2022-11-15T15:55:34;36.63;;;23.33;;
64520;SDS011;50896;46.714;17.322;2022-11-15T15:58:01;32.58;;;21.20;;
64520;SDS011;50896;46.714;17.322;2022-11-15T16:00:27;36.40;;;22.45;;
64520;SDS011;50896;46.714;17.322;2022-11-15T16:02:54;36.30;;;23.20;;
64520;SDS011;50896;46.714;17.322;2022-11-15T16:05:21;35.30;;;22.20;;
64520;SDS011;50896;46.714;17.322;2022-11-15T16:07:48;38.10;;;23.60;;
64520;SDS011;50896;46.714;17.322;2022-11-15T16:10:17;37.70;;;23.98;;
64520;SDS011;50896;46.714;17.322;2022-11-15T16:12:44;39.47;;;24.63;;
64520;SDS011;50896;46.714;17.322;2022-11-15T16:15:11;39.65;;;24.08;;
64520;SDS011;50896;46.714;17.322;2022-11-15T16:17:39;43.08;;;25.70;;
64520;SDS011;50896;46.714;17.322;2022-11-15T16:25:39;39.40;;;23.45;;
64520;SDS011;50896;46.714;17.322;2022-11-15T16:30:59;44.25;;;25.00;;
64520;SDS011;50896;46.714;17.322;2022-11-15T16:33:30;46.58;;;25.92;;
64520;SDS011;50896;46.714;17.322;2022-11-15T16:35:57;43.45;;;24.25;;
64520;SDS011;50896;46.714;17.322;2022-11-15T16:38:24;40.35;;;24.00;;
64520;SDS011;50896;46.714;17.322;2022-11-15T16:40:54;51.63;;;25.58;;
64520;SDS011;50896;46.714;17.322;2022-11-15T16:43:21;43.80;;;23.77;;
64520;SDS011;50896;46.714;17.322;2022-11-15T16:45:48;44.00;;;23.88;;
64520;SDS011;50896;46.714;17.322;2022-11-15T16:48:21;42.40;;;24.33;;
64520;SDS011;50896;46.714;17.322;2022-11-15T16:50:53;46.90;;;25.55;;
64520;SDS011;50896;46.714;17.322;2022-11-15T16:53:22;48.25;;;25.75;;
64520;SDS011;50896;46.714;17.322;2022-11-15T16:55:49;43.20;;;25.60;;
64520;SDS011;50896;46.714;17.322;2022-11-15T16:58:15;43.78;;;23.88;;
64520;SDS011;50896;46.714;17.322;2022-11-15T17:00:42;44.05;;;25.02;;
64520;SDS011;50896;46.714;17.322;2022-11-15T17:03:09;43.10;;;24.15;;
64520;SDS011;50896;46.714;17.322;2022-11-15T17:05:36;39.58;;;23.52;;
64520;SDS011;50896;46.714;17.322;2022-11-15T17:08:02;44.55;;;25.83;;
64520;SDS011;50896;46.714;17.322;2022-11-15T17:10:29;43.45;;;25.05;;
64520;SDS011;50896;46.714;17.322;2022-11-15T17:12:56;45.47;;;26.73;;
64520;SDS011;50896;46.714;17.322;2022-11-15T17:15:23;43.72;;;25.63;;
64520;SDS011;50896;46.714;17.322;2022-11-15T17:17:51;49.60;;;28.50;;
64520;SDS011;50896;46.714;17.322;2022-11-15T17:20:20;54.05;;;27.95;;
64520;SDS011;50896;46.714;17.322;2022-11-15T17:22:48;61.30;;;33.15;;
64520;SDS011;50896;46.714;17.322;2022-11-15T17:25:15;49.55;;;28.05;;
64520;SDS011;50896;46.714;17.322;2022-11-15T17:27:42;48.67;;;26.65;;
64520;SDS011;50896;46.714;17.322;2022-11-15T17:30:09;52.88;;;27.88;;
64520;SDS011;50896;46.714;17.322;2022-11-15T17:32:38;46.33;;;25.55;;
64520;SDS011;50896;46.714;17.322;2022-11-15T17:35:05;54.35;;;26.30;;
64520;SDS011;50896;46.714;17.322;2022-11-15T17:37:39;45.03;;;24.55;;
64520;SDS011;50896;46.714;17.322;2022-11-15T17:40:06;44.40;;;24.50;;
64520;SDS011;50896;46.714;17.322;2022-11-15T17:42:33;49.92;;;27.48;;
64520;SDS011;50896;46.714;17.322;2022-11-15T17:44:59;51.75;;;25.52;;
64520;SDS011;50896;46.714;17.322;2022-11-15T17:47:34;47.83;;;26.20;;
64520;SDS011;50896;46.714;17.322;2022-11-15T17:50:01;48.40;;;27.83;;
64520;SDS011;50896;46.714;17.322;2022-11-15T17:52:28;47.33;;;26.88;;
64520;SDS011;50896;46.714;17.322;2022-11-15T17:54:54;45.38;;;26.23;;
64520;SDS011;50896;46.714;17.322;2022-11-15T17:57:21;51.35;;;28.15;;
64520;SDS011;50896;46.714;17.322;2022-11-15T17:59:48;55.83;;;32.08;;
64520;SDS011;50896;46.714;17.322;2022-11-15T18:02:14;47.97;;;26.58;;
64520;SDS011;50896;46.714;17.322;2022-11-15T18:04:41;45.67;;;26.40;;
64520;SDS011;50896;46.714;17.322;2022-11-15T18:07:08;42.08;;;24.63;;
64520;SDS011;50896;46.714;17.322;2022-11-15T18:09:37;40.22;;;23.67;;
64520;SDS011;50896;46.714;17.322;2022-11-15T18:12:07;45.95;;;26.05;;
64520;SDS011;50896;46.714;17.322;2022-11-15T18:14:35;43.00;;;24.27;;
64520;SDS011;50896;46.714;17.322;2022-11-15T18:17:02;43.63;;;23.40;;
64520;SDS011;50896;46.714;17.322;2022-11-15T18:19:29;45.85;;;25.38;;
64520;SDS011;50896;46.714;17.322;2022-11-15T18:21:55;41.75;;;24.38;;
64520;SDS011;50896;46.714;17.322;2022-11-15T18:24:23;38.78;;;22.48;;
64520;SDS011;50896;46.714;17.322;2022-11-15T18:26:51;40.63;;;22.80;;
64520;SDS011;50896;46.714;17.322;2022-11-15T18:29:18;38.47;;;23.33;;
64520;SDS011;50896;46.714;17.322;2022-11-15T18:31:45;40.20;;;23.52;;
64520;SDS011;50896;46.714;17.322;2022-11-15T18:34:15;44.40;;;25.77;;
64520;SDS011;50896;46.714;17.322;2022-11-15T18:36:42;49.00;;;26.85;;
64520;SDS011;50896;46.714;17.322;2022-11-15T18:39:09;46.42;;;26.50;;
64520;SDS011;50896;46.714;17.322;2022-11-15T18:41:42;44.80;;;25.88;;
64520;SDS011;50896;46.714;17.322;2022-11-15T18:44:10;44.95;;;26.05;;
64520;SDS011;50896;46.714;17.322;2022-11-15T18:46:37;50.53;;;26.77;;
64520;SDS011;50896;46.714;17.322;2022-11-15T18:49:04;48.28;;;26.90;;
64520;SDS011;50896;46.714;17.322;2022-11-15T18:51:35;42.67;;;24.60;;
64520;SDS011;50896;46.714;17.322;2022-11-15T18:54:11;40.92;;;24.33;;
64520;SDS011;50896;46.714;17.322;2022-11-15T18:56:39;45.22;;;27.17;;
64520;SDS011;50896;46.714;17.322;2022-11-15T18:59:06;48.63;;;26.65;;
64520;SDS011;50896;46.714;17.322;2022-11-15T19:01:38;45.90;;;26.65;;
64520;SDS011;50896;46.714;17.322;2022-11-15T19:04:07;45.22;;;25.58;;
64520;SDS011;50896;46.714;17.322;2022-11-15T19:06:37;43.22;;;24.20;;
64520;SDS011;50896;46.714;17.322;2022-11-15T19:09:05;44.17;;;26.52;;
64520;SDS011;50896;46.714;17.322;2022-11-15T19:11:34;46.03;;;27.00;;
64520;SDS011;50896;46.714;17.322;2022-11-15T19:14:03;54.85;;;30.42;;
64520;SDS011;50896;46.714;17.322;2022-11-15T19:16:32;49.08;;;27.98;;
64520;SDS011;50896;46.714;17.322;2022-11-15T19:21:29;50.80;;;28.52;;
64520;SDS011;50896;46.714;17.322;2022-11-15T19:23:57;48.30;;;27.35;;
64520;SDS011;50896;46.714;17.322;2022-11-15T19:26:25;52.50;;;30.00;;
64520;SDS011;50896;46.714;17.322;2022-11-15T19:28:57;48.55;;;26.90;;
64520;SDS011;50896;46.714;17.322;2022-11-15T19:31:26;51.38;;;29.70;;
64520;SDS011;50896;46.714;17.322;2022-11-15T19:33:54;55.33;;;30.55;;
64520;SDS011;50896;46.714;17.322;2022-11-15T19:36:27;49.45;;;28.13;;
64520;SDS011;50896;46.714;17.322;2022-11-15T19:38:59;45.38;;;27.17;;
64520;SDS011;50896;46.714;17.322;2022-11-15T19:41:30;49.35;;;27.13;;
64520;SDS011;50896;46.714;17.322;2022-11-15T19:43:57;43.33;;;26.35;;
64520;SDS011;50896;46.714;17.322;2022-11-15T19:46:24;42.30;;;26.63;;
64520;SDS011;50896;46.714;17.322;2022-11-15T19:48:52;45.58;;;26.73;;
64520;SDS011;50896;46.714;17.322;2022-11-15T19:51:21;49.90;;;29.48;;
64520;SDS011;50896;46.714;17.322;2022-11-15T19:53:53;47.95;;;28.42;;
64520;SDS011;50896;46.714;17.322;2022-11-15T19:56:22;46.55;;;27.25;;
64520;SDS011;50896;46.714;17.322;2022-11-15T19:58:50;45.75;;;27.33;;
64520;SDS011;50896;46.714;17.322;2022-11-15T20:03:50;41.53;;;24.48;;
64520;SDS011;50896;46.714;17.322;2022-11-15T20:06:27;48.15;;;27.27;;
64520;SDS011;50896;46.714;17.322;2022-11-15T20:08:55;53.75;;;30.75;;
64520;SDS011;50896;46.714;17.322;2022-11-15T20:11:23;48.90;;;27.80;;
64520;SDS011;50896;46.714;17.322;2022-11-15T20:13:50;49.05;;;27.40;;
64520;SDS011;50896;46.714;17.322;2022-11-15T20:16:18;45.75;;;27.42;;
64520;SDS011;50896;46.714;17.322;2022-11-15T20:18:47;46.05;;;25.80;;
64520;SDS011;50896;46.714;17.322;2022-11-15T20:21:15;45.65;;;26.77;;
64520;SDS011;50896;46.714;17.322;2022-11-15T20:23:42;46.53;;;26.48;;
64520;SDS011;50896;46.714;17.322;2022-11-15T20:26:10;48.80;;;27.40;;
64520;SDS011;50896;46.714;17.322;2022-11-15T20:28:37;47.25;;;26.83;;
64520;SDS011;50896;46.714;17.322;2022-11-15T20:31:05;49.03;;;27.60;;
64520;SDS011;50896;46.714;17.322;2022-11-15T20:33:32;48.80;;;26.70;;
64520;SDS011;50896;46.714;17.322;2022-11-15T20:36:05;47.03;;;26.85;;
64520;SDS011;50896;46.714;17.322;2022-11-15T20:38:33;53.00;;;28.17;;
64520;SDS011;50896;46.714;17.322;2022-11-15T20:41:00;50.90;;;29.00;;
64520;SDS011;50896;46.714;17.322;2022-11-15T20:43:27;51.63;;;27.85;;
64520;SDS011;50896;46.714;17.322;2022-11-15T20:45:54;50.83;;;29.25;;
64520;SDS011;50896;46.714;17.322;2022-11-15T20:48:21;52.35;;;28.50;;
64520;SDS011;50896;46.714;17.322;2022-11-15T20:50:47;51.17;;;28.48;;
64520;SDS011;50896;46.714;17.322;2022-11-15T20:53:16;53.13;;;27.95;;
64520;SDS011;50896;46.714;17.322;2022-11-15T20:58:17;51.90;;;27.60;;
64520;SDS011;50896;46.714;17.322;2022-11-15T21:00:44;51.33;;;27.15;;
64520;SDS011;50896;46.714;17.322;2022-11-15T21:03:12;51.35;;;26.73;;
64520;SDS011;50896;46.714;17.322;2022-11-15T21:05:41;52.97;;;27.17;;
64520;SDS011;50896;46.714;17.322;2022-11-15T21:08:09;44.92;;;25.63;;
64520;SDS011;50896;46.714;17.322;2022-11-15T21:10:38;47.33;;;26.73;;
64520;SDS011;50896;46.714;17.322;2022-11-15T21:13:24;50.50;;;27.23;;
64520;SDS011;50896;46.714;17.322;2022-11-15T21:15:55;49.10;;;26.95;;
64520;SDS011;50896;46.714;17.322;2022-11-15T21:18:25;56.95;;;27.88;;
64520;SDS011;50896;46.714;17.322;2022-11-15T21:20:52;51.38;;;26.92;;
64520;SDS011;50896;46.714;17.322;2022-11-15T21:23:19;48.78;;;26.15;;
64520;SDS011;50896;46.714;17.322;2022-11-15T21:25:49;54.72;;;27.30;;
64520;SDS011;50896;46.714;17.322;2022-11-15T21:28:17;51.47;;;27.08;;
64520;SDS011;50896;46.714;17.322;2022-11-15T21:30:53;48.25;;;25.80;;
64520;SDS011;50896;46.714;17.322;2022-11-15T21:33:20;53.47;;;28.10;;
64520;SDS011;50896;46.714;17.322;2022-11-15T21:35:49;54.40;;;27.02;;
64520;SDS011;50896;46.714;17.322;2022-11-15T21:38:16;53.35;;;28.13;;
64520;SDS011;50896;46.714;17.322;2022-11-15T21:40:43;50.38;;;26.75;;
64520;SDS011;50896;46.714;17.322;2022-11-15T21:43:10;53.58;;;27.75;;
64520;SDS011;50896;46.714;17.322;2022-11-15T21:45:37;50.92;;;27.60;;
64520;SDS011;50896;46.714;17.322;2022-11-15T21:48:04;53.08;;;26.65;;
64520;SDS011;50896;46.714;17.322;2022-11-15T21:50:31;55.03;;;27.25;;
64520;SDS011;50896;46.714;17.322;2022-11-15T21:52:58;57.78;;;27.48;;
64520;SDS011;50896;46.714;17.322;2022-11-15T21:55:25;50.83;;;26.85;;
64520;SDS011;50896;46.714;17.322;2022-11-15T21:57:51;51.30;;;27.40;;
64520;SDS011;50896;46.714;17.322;2022-11-15T22:00:18;52.85;;;26.40;;
64520;SDS011;50896;46.714;17.322;2022-11-15T22:03:03;45.05;;;25.02;;
64520;SDS011;50896;46.714;17.322;2022-11-15T22:05:30;50.72;;;27.27;;
64520;SDS011;50896;46.714;17.322;2022-11-15T22:07:57;51.13;;;26.88;;
64520;SDS011;50896;46.714;17.322;2022-11-15T22:10:23;48.67;;;26.75;;
64520;SDS011;50896;46.714;17.322;2022-11-15T22:12:50;48.20;;;25.15;;
64520;SDS011;50896;46.714;17.322;2022-11-15T22:15:17;51.88;;;26.83;;
64520;SDS011;50896;46.714;17.322;2022-11-15T22:17:43;44.35;;;24.58;;
64520;SDS011;50896;46.714;17.322;2022-11-15T22:20:26;48.97;;;27.27;;
64520;SDS011;50896;46.714;17.322;2022-11-15T22:23:10;46.15;;;25.30;;
64520;SDS011;50896;46.714;17.322;2022-11-15T22:25:36;45.42;;;24.52;;
64520;SDS011;50896;46.714;17.322;2022-11-15T22:28:03;48.25;;;26.05;;
64520;SDS011;50896;46.714;17.322;2022-11-15T22:30:30;47.60;;;25.60;;
64520;SDS011;50896;46.714;17.322;2022-11-15T22:32:57;49.45;;;26.33;;
64520;SDS011;50896;46.714;17.322;2022-11-15T22:35:24;43.45;;;24.83;;
64520;SDS011;50896;46.714;17.322;2022-11-15T22:37:54;46.85;;;25.38;;
64520;SDS011;50896;46.714;17.322;2022-11-15T22:40:23;52.67;;;27.35;;
64520;SDS011;50896;46.714;17.322;2022-11-15T22:42:50;45.92;;;26.70;;
64520;SDS011;50896;46.714;17.322;2022-11-15T22:45:16;48.05;;;26.30;;
64520;SDS011;50896;46.714;17.322;2022-11-15T22:47:43;51.88;;;26.08;;
64520;SDS011;50896;46.714;17.322;2022-11-15T22:50:10;47.53;;;26.55;;
64520;SDS011;50896;46.714;17.322;2022-11-15T22:52:37;47.40;;;25.55;;
64520;SDS011;50896;46.714;17.322;2022-11-15T22:55:03;48.92;;;26.67;;
64520;SDS011;50896;46.714;17.322;2022-11-15T22:57:31;47.70;;;25.52;;
64520;SDS011;50896;46.714;17.322;2022-11-15T22:59:57;52.53;;;26.90;;
64520;SDS011;50896;46.714;17.322;2022-11-15T23:02:27;51.22;;;26.77;;
64520;SDS011;50896;46.714;17.322;2022-11-15T23:04:54;52.90;;;26.55;;
64520;SDS011;50896;46.714;17.322;2022-11-15T23:07:20;46.78;;;26.05;;
64520;SDS011;50896;46.714;17.322;2022-11-15T23:09:47;51.13;;;27.25;;
64520;SDS011;50896;46.714;17.322;2022-11-15T23:12:17;53.08;;;27.00;;
64520;SDS011;50896;46.714;17.322;2022-11-15T23:15:02;49.00;;;26.60;;
64520;SDS011;50896;46.714;17.322;2022-11-15T23:17:29;48.85;;;26.58;;
64520;SDS011;50896;46.714;17.322;2022-11-15T23:19:57;47.90;;;25.38;;
64520;SDS011;50896;46.714;17.322;2022-11-15T23:22:44;45.63;;;24.85;;
64520;SDS011;50896;46.714;17.322;2022-11-15T23:25:13;51.53;;;27.63;;
64520;SDS011;50896;46.714;17.322;2022-11-15T23:27:40;50.63;;;26.42;;
64520;SDS011;50896;46.714;17.322;2022-11-15T23:30:07;47.42;;;25.73;;
64520;SDS011;50896;46.714;17.322;2022-11-15T23:32:53;48.92;;;28.77;;
64520;SDS011;50896;46.714;17.322;2022-11-15T23:35:53;50.67;;;25.85;;
64520;SDS011;50896;46.714;17.322;2022-11-15T23:38:20;48.42;;;25.80;;
64520;SDS011;50896;46.714;17.322;2022-11-15T23:40:50;50.05;;;27.30;;
64520;SDS011;50896;46.714;17.322;2022-11-15T23:43:17;47.72;;;26.45;;
64520;SDS011;50896;46.714;17.322;2022-11-15T23:45:44;51.78;;;26.48;;
64520;SDS011;50896;46.714;17.322;2022-11-15T23:48:11;46.28;;;25.55;;
64520;SDS011;50896;46.714;17.322;2022-11-15T23:50:38;48.47;;;25.48;;
64520;SDS011;50896;46.714;17.322;2022-11-15T23:53:04;43.25;;;23.48;;
64520;SDS011;50896;46.714;17.322;2022-11-15T23:55:31;48.75;;;25.20;;
64520;SDS011;50896;46.714;17.322;2022-11-15T23:57:58;43.97;;;24.60;;
